createdAt,value
2022-08-23T00:01:24.398Z,94944.69
2022-08-23T00:04:14.611Z,94937.25
2022-08-23T00:07:07.347Z,94927.03
2022-08-23T00:09:53.185Z,94926.63
2022-08-23T00:12:40.147Z,94936.47
2022-08-23T00:15:26.353Z,94931.72
2022-08-23T00:18:14.424Z,94942.00
2022-08-23T00:21:00.541Z,94936.88
2022-08-23T00:23:46.234Z,94940.44
2022-08-23T00:27:02.355Z,94947.91
2022-08-23T00:29:54.241Z,94944.81
2022-08-23T00:32:41.484Z,94934.97
2022-08-23T00:35:27.930Z,94938.13
2022-08-23T00:38:32.438Z,94947.19
2022-08-23T00:41:19.735Z,94940.91
2022-08-23T00:44:24.543Z,94942.09
2022-08-23T00:47:30.736Z,94941.69
2022-08-23T00:50:23.453Z,94942.09
2022-08-23T00:53:26.138Z,94949.97
2022-08-23T00:56:13.785Z,94944.47
2022-08-23T00:59:00.285Z,94946.03
2022-08-23T01:01:46.108Z,94937.41
2022-08-23T01:04:37.137Z,94944.47
2022-08-23T01:07:48.718Z,94938.19
2022-08-23T01:10:44.644Z,94939.03
2022-08-23T01:14:03.857Z,94943.34
2022-08-23T01:16:54.485Z,94943.78
2022-08-23T01:19:51.901Z,94950.06
2022-08-23T01:22:43.421Z,94929.63
2022-08-23T01:25:31.868Z,94940.63
2022-08-23T01:28:18.338Z,94948.88
2022-08-23T01:31:04.189Z,94942.19
2022-08-23T01:33:59.662Z,94957.13
2022-08-23T01:36:46.446Z,94949.28
2022-08-23T01:39:32.244Z,94943.75
2022-08-23T01:42:18.928Z,94950.03
2022-08-23T01:45:05.886Z,94942.16
2022-08-23T01:47:52.607Z,94945.28
2022-08-23T01:50:39.172Z,94946.84
2022-08-23T01:53:25.361Z,94943.72
2022-08-23T01:56:11.256Z,94942.13
2022-08-23T01:58:58.660Z,94953.16
2022-08-23T02:01:51.424Z,94942.13
2022-08-23T02:04:37.715Z,94944.47
2022-08-23T02:07:27.554Z,94940.56
2022-08-23T02:10:15.562Z,94951.16
2022-08-23T02:13:01.839Z,94953.13
2022-08-23T02:15:51.591Z,94949.97
2022-08-23T02:18:41.356Z,94942.88
2022-08-23T02:21:27.437Z,94946.81
2022-08-23T02:24:16.629Z,94956.28
2022-08-23T02:27:05.157Z,94953.13
2022-08-23T02:29:54.935Z,94956.69
2022-08-23T02:32:42.348Z,94966.13
2022-08-23T02:35:29.553Z,94971.25
2022-08-23T02:38:17.344Z,94969.69
2022-08-23T02:41:03.590Z,94966.53
2022-08-23T02:43:53.710Z,94963.00
2022-08-23T02:46:42.198Z,94971.25
2022-08-23T02:49:29.566Z,94965.75
2022-08-23T02:52:15.612Z,94971.25
2022-08-23T02:55:02.415Z,94977.16
2022-08-23T02:57:48.832Z,94981.50
2022-08-23T03:01:57.327Z,94991.75
2022-08-23T03:04:47.647Z,94974.81
2022-08-23T03:07:33.492Z,94979.91
2022-08-23T03:10:20.675Z,94979.91
2022-08-23T03:13:12.828Z,94988.56
2022-08-23T03:15:59.270Z,94986.25
2022-08-23T03:18:45.994Z,94998.81
2022-08-23T03:21:32.548Z,94990.16
2022-08-23T03:24:19.289Z,94989.38
2022-08-23T03:27:05.573Z,94990.16
2022-08-23T03:29:51.624Z,94996.84
2022-08-23T03:32:37.678Z,95004.34
2022-08-23T03:35:23.642Z,95006.69
2022-08-23T03:38:10.675Z,95005.91
2022-08-23T03:40:57.240Z,95008.28
2022-08-23T03:43:44.118Z,95011.03
2022-08-23T03:46:34.033Z,95015.31
2022-08-23T03:49:21.044Z,95016.13
2022-08-23T03:52:12.647Z,95018.91
2022-08-23T03:54:59.202Z,95024.81
2022-08-23T03:57:49.130Z,95011.41
2022-08-23T04:00:38.217Z,95028.72
2022-08-23T04:03:24.589Z,95032.66
2022-08-23T04:06:19.816Z,95022.44
2022-08-23T04:09:06.908Z,95029.91
2022-08-23T04:11:53.393Z,95028.34
2022-08-23T04:14:40.788Z,95031.09
2022-08-23T04:17:27.060Z,95024.81
2022-08-23T04:20:13.455Z,95031.88
2022-08-23T04:23:19.889Z,95035.03
2022-08-23T04:26:11.707Z,95038.19
2022-08-23T04:29:00.158Z,95042.13
2022-08-23T04:31:46.841Z,95039.75
2022-08-23T04:34:36.358Z,95044.06
2022-08-23T04:37:23.457Z,95045.25
2022-08-23T04:40:31.411Z,95046.03
2022-08-23T04:43:18.638Z,95038.97
2022-08-23T04:46:05.653Z,95050.75
2022-08-23T04:48:54.353Z,95057.06
2022-08-23T04:51:40.633Z,95051.94
2022-08-23T04:54:27.067Z,95053.13
2022-08-23T04:57:42.607Z,95064.94
2022-08-23T05:00:30.835Z,95061.00
2022-08-23T05:03:17.404Z,95061.41
2022-08-23T05:06:05.202Z,95069.63
2022-08-23T05:08:58.343Z,95068.47
2022-08-23T05:11:44.565Z,95077.50
2022-08-23T05:14:31.628Z,95070.41
2022-08-23T05:17:20.592Z,95070.84
2022-08-23T05:20:08.413Z,95083.81
2022-08-23T05:22:55.537Z,95079.88
2022-08-23T05:26:04.112Z,95084.59
2022-08-23T05:28:58.760Z,95085.38
2022-08-23T05:31:50.578Z,95084.97
2022-08-23T05:34:39.177Z,95093.25
2022-08-23T05:37:29.435Z,95084.63
2022-08-23T05:40:15.710Z,95088.53
2022-08-23T05:43:15.728Z,95094.06
2022-08-23T05:46:12.192Z,95098.38
2022-08-23T05:49:06.011Z,95100.72
2022-08-23T05:51:52.221Z,95101.91
2022-08-23T05:54:41.133Z,95107.00
2022-08-23T05:57:47.544Z,95102.69
2022-08-23T06:00:40.643Z,95110.56
2022-08-23T06:03:29.347Z,95107.41
2022-08-23T06:06:16.271Z,95109.75
2022-08-23T06:09:04.047Z,95110.94
2022-08-23T06:11:50.663Z,95112.91
2022-08-23T06:14:38.648Z,95099.94
2022-08-23T06:17:29.043Z,95105.03
2022-08-23T06:20:18.208Z,95109.34
2022-08-23T06:23:21.954Z,95109.72
2022-08-23T06:26:33.723Z,95096.34
2022-08-23T06:29:21.636Z,95103.44
2022-08-23T06:32:16.950Z,95108.59
2022-08-23T06:35:38.659Z,95107.41
2022-08-23T06:38:51.014Z,95104.28
2022-08-23T06:42:10.101Z,95117.66
2022-08-23T06:45:05.492Z,95122.34
2022-08-23T06:47:57.661Z,95122.38
2022-08-23T06:50:43.743Z,95120.81
2022-08-23T06:54:03.058Z,95125.50
2022-08-23T06:57:08.239Z,95117.66
2022-08-23T07:00:22.133Z,95126.28
2022-08-23T07:03:27.367Z,95118.44
2022-08-23T07:06:37.168Z,95124.75
2022-08-23T07:09:23.680Z,95120.38
2022-08-23T07:12:11.581Z,95118.44
2022-08-23T07:15:00.604Z,95123.94
2022-08-23T07:17:46.539Z,95115.69
2022-08-23T07:20:32.583Z,95112.13
2022-08-23T07:23:18.391Z,95116.84
2022-08-23T07:26:08.503Z,95107.78
2022-08-23T07:28:54.632Z,95121.53
2022-08-23T07:31:47.025Z,95120.38
2022-08-23T07:34:34.400Z,95128.63
2022-08-23T07:37:21.045Z,95132.16
2022-08-23T07:40:08.522Z,95128.59
2022-08-23T07:42:57.893Z,95142.44
2022-08-23T07:45:44.649Z,95142.81
2022-08-23T07:48:52.501Z,95145.94
2022-08-23T07:51:45.526Z,95144.41
2022-08-23T07:54:32.001Z,95153.03
2022-08-23T07:57:24.851Z,95155.44
2022-08-23T08:00:36.984Z,95143.63
2022-08-23T08:03:53.475Z,95157.78
2022-08-23T08:07:00.189Z,95146.38
2022-08-23T08:09:54.991Z,95129.03
2022-08-23T08:12:44.239Z,95145.94
2022-08-23T08:15:42.187Z,95147.16
2022-08-23T08:18:32.433Z,95144.41
2022-08-23T08:21:39.610Z,95139.66
2022-08-23T08:24:46.482Z,95130.19
2022-08-23T08:27:33.385Z,95134.53
2022-08-23T08:30:22.049Z,95138.06
2022-08-23T08:33:09.054Z,95139.63
2022-08-23T08:35:57.758Z,95138.03
2022-08-23T08:38:50.361Z,95137.63
2022-08-23T08:41:44.279Z,95139.59
2022-08-23T08:44:55.867Z,95137.19
2022-08-23T08:48:04.053Z,95136.41
2022-08-23T08:51:01.758Z,95126.53
2022-08-23T08:53:49.036Z,95125.34
2022-08-23T08:56:52.000Z,95135.16
2022-08-23T09:00:13.803Z,95135.94
2022-08-23T09:03:06.418Z,95135.53
2022-08-23T09:06:00.671Z,95135.53
2022-08-23T09:09:13.459Z,95135.91
2022-08-23T09:12:19.067Z,95134.69
2022-08-23T09:15:13.104Z,95141.75
2022-08-23T09:18:13.673Z,95133.41
2022-08-23T09:20:59.798Z,95137.75
2022-08-23T09:23:47.902Z,95129.81
2022-08-23T09:26:54.749Z,95134.91
2022-08-23T09:29:59.232Z,95140.75
2022-08-23T09:32:48.742Z,95136.75
2022-08-23T09:35:34.840Z,95142.25
2022-08-23T09:38:27.064Z,95130.78
2022-08-23T09:41:24.011Z,95139.78
2022-08-23T09:44:16.496Z,95138.19
2022-08-23T09:47:12.283Z,95140.47
2022-08-23T09:50:18.347Z,95144.34
2022-08-23T09:53:10.966Z,95136.44
2022-08-23T09:55:59.078Z,95133.19
2022-08-23T09:58:47.166Z,95129.22
2022-08-23T10:01:40.320Z,95125.25
2022-08-23T10:04:37.537Z,95129.16
2022-08-23T10:08:00.669Z,95130.72
2022-08-23T10:10:50.911Z,95132.75
2022-08-23T10:13:43.219Z,95125.66
2022-08-23T10:16:41.547Z,95124.50
2022-08-23T10:19:47.884Z,95122.97
2022-08-23T10:22:53.543Z,95126.97
2022-08-23T10:25:54.923Z,95126.97
2022-08-23T10:29:09.783Z,95129.34
2022-08-23T10:32:40.905Z,95127.41
2022-08-23T10:35:57.510Z,95135.31
2022-08-23T10:38:47.140Z,95129.41
2022-08-23T10:41:54.899Z,95132.56
2022-08-23T10:44:51.025Z,95137.69
2022-08-23T10:47:51.702Z,95134.91
2022-08-23T10:50:55.797Z,95136.44
2022-08-23T10:54:06.278Z,95135.56
2022-08-23T10:56:53.018Z,95140.25
2022-08-23T10:59:39.370Z,95137.00
2022-08-23T11:02:56.283Z,95137.34
2022-08-23T11:06:29.306Z,95142.44
2022-08-23T11:09:19.194Z,95143.53
2022-08-23T11:12:11.824Z,95136.81
2022-08-23T11:15:05.479Z,95131.16
2022-08-23T11:17:56.324Z,95143.69
2022-08-23T11:20:49.551Z,95136.88
2022-08-23T11:23:55.963Z,95126.03
2022-08-23T11:26:45.443Z,95121.56
2022-08-23T11:29:33.226Z,95127.38
2022-08-23T11:32:41.296Z,95124.94
2022-08-23T11:35:43.265Z,95126.81
2022-08-23T11:38:50.021Z,95118.03
2022-08-23T11:41:57.178Z,95123.91
2022-08-23T11:44:49.164Z,95120.66
2022-08-23T11:47:44.536Z,95111.91
2022-08-23T11:50:57.726Z,95113.97
2022-08-23T11:53:53.185Z,95116.06
2022-08-23T11:57:00.462Z,95114.94
2022-08-23T13:10:46.230Z,95039.47
2022-08-23T13:13:33.023Z,95043.13
2022-08-23T13:16:42.963Z,95040.31
2022-08-23T13:19:31.164Z,95032.19
2022-08-23T13:22:24.068Z,95036.81
2022-08-23T13:25:32.164Z,95040.34
2022-08-23T13:28:25.548Z,95031.13
2022-08-23T13:31:11.457Z,95028.53
2022-08-23T13:33:57.640Z,95022.31
2022-08-23T13:36:44.423Z,95016.88
2022-08-23T13:39:30.777Z,95023.66
2022-08-23T13:42:51.158Z,95014.47
2022-08-23T13:46:37.821Z,95002.06
2022-08-23T13:49:29.336Z,95015.16
2022-08-23T13:55:21.680Z,95016.22
2022-08-23T13:58:10.763Z,95013.47
2022-08-23T14:00:58.858Z,95019.84
2022-08-23T14:03:46.800Z,95022.19
2022-08-23T14:06:32.513Z,95013.50
2022-08-23T14:09:20.471Z,95010.09
2022-08-23T14:12:15.562Z,95022.84
2022-08-23T14:15:03.879Z,95014.41
2022-08-23T14:17:52.689Z,95015.66
2022-08-23T14:20:46.470Z,95023.16
2022-08-23T14:23:34.574Z,95017.66
2022-08-23T14:26:21.928Z,95021.72
2022-08-23T14:29:08.343Z,95017.53
2022-08-23T14:32:02.289Z,95029.66
2022-08-23T14:34:48.490Z,95026.41
2022-08-23T14:40:40.894Z,95022.69
2022-08-23T14:43:27.648Z,95035.59
2022-08-23T14:46:13.725Z,95025.50
2022-08-23T14:49:00.031Z,95032.47
2022-08-23T14:51:47.492Z,95032.28
2022-08-23T14:54:36.129Z,95036.84
2022-08-23T14:57:22.012Z,95039.66
2022-08-23T15:00:13.774Z,95041.19
2022-08-23T15:03:00.220Z,95042.72
2022-08-23T15:05:46.432Z,95037.75
2022-08-23T15:08:33.434Z,95055.78
2022-08-23T15:14:26.323Z,95041.88
2022-08-23T15:17:12.074Z,95041.75
2022-08-23T15:19:57.892Z,95041.63
2022-08-23T15:22:44.640Z,95046.25
2022-08-23T15:25:33.803Z,95049.91
2022-08-23T15:28:21.064Z,95046.72
2022-08-23T15:31:07.399Z,95054.00
2022-08-23T15:33:53.477Z,95054.59
2022-08-23T15:36:41.924Z,95052.09
2022-08-23T15:39:28.123Z,95062.53
2022-08-23T15:42:18.539Z,95053.59
2022-08-23T15:45:09.227Z,95057.81
2022-08-23T15:47:56.522Z,95048.56
2022-08-23T15:50:45.360Z,95052.81
2022-08-23T15:53:31.813Z,95041.47
2022-08-23T15:56:28.207Z,95044.00
2022-08-23T15:59:16.686Z,95053.59
2022-08-23T16:02:03.803Z,95066.16
2022-08-23T16:04:50.084Z,95076.75
2022-08-23T16:07:37.128Z,95072.38
2022-08-23T16:10:24.089Z,95074.91
2022-08-23T16:13:10.793Z,95074.50
2022-08-23T16:15:57.650Z,95073.84
2022-08-23T16:18:44.195Z,95072.25
2022-08-23T16:21:31.438Z,95089.97
2022-08-23T16:24:17.218Z,95084.66
2022-08-23T16:27:07.605Z,95089.94
2022-08-23T16:29:53.559Z,95082.94
2022-08-23T16:32:39.368Z,95095.78
2022-08-23T16:35:25.378Z,95094.56
2022-08-23T16:38:11.284Z,95106.06
2022-08-23T16:40:57.413Z,95101.69
2022-08-23T16:43:43.529Z,95117.19
2022-08-23T16:46:29.482Z,95116.72
2022-08-23T16:49:18.679Z,95116.25
2022-08-23T16:52:04.715Z,95113.06
2022-08-23T16:54:50.813Z,95121.56
2022-08-23T16:57:37.090Z,95123.41
2022-08-23T17:00:23.082Z,95137.59
2022-08-23T17:03:09.950Z,95133.63
2022-08-23T17:05:55.989Z,95145.72
2022-08-23T17:08:45.141Z,95173.63
2022-08-23T17:11:32.959Z,95171.44
2022-08-23T17:14:19.962Z,95169.31
2022-08-23T17:17:06.171Z,95188.44
2022-08-23T17:19:52.366Z,95188.53
2022-08-23T17:22:38.419Z,95201.72
2022-08-23T17:25:24.982Z,95208.22
2022-08-23T17:28:11.096Z,95214.31
2022-08-23T17:30:56.918Z,95214.47
2022-08-23T17:33:43.837Z,95216.91
2022-08-23T17:37:06.920Z,95218.63
2022-08-23T17:39:53.329Z,95235.25
2022-08-23T17:42:39.426Z,95243.28
2022-08-23T17:45:27.189Z,95255.19
2022-08-23T17:48:14.509Z,95267.94
2022-08-23T17:51:01.572Z,95268.03
2022-08-23T17:53:47.529Z,95265.75
2022-08-23T17:56:33.880Z,95286.75
2022-08-23T17:59:20.363Z,95290.38
2022-08-23T18:02:07.161Z,95293.63
2022-08-23T18:04:53.040Z,95314.22
2022-08-23T18:07:40.427Z,95317.78
2022-08-23T18:10:26.967Z,95326.09
2022-08-23T18:13:12.799Z,95328.50
2022-08-23T18:15:58.790Z,95323.38
2022-08-23T18:18:44.842Z,95326.97
2022-08-23T18:21:30.791Z,95328.53
2022-08-23T18:24:16.991Z,95323.81
2022-08-23T18:27:23.565Z,95329.34
2022-08-23T18:30:11.176Z,95325.47
2022-08-23T18:32:59.595Z,95336.16
2022-08-23T18:35:46.671Z,95329.09
2022-08-23T18:38:32.567Z,95334.25
2022-08-23T18:41:18.521Z,95339.03
2022-08-23T18:44:05.948Z,95345.34
2022-08-23T18:46:52.089Z,95331.16
2022-08-23T18:49:38.902Z,95337.50
2022-08-23T18:52:27.159Z,95338.28
2022-08-23T18:55:17.822Z,95345.84
2022-08-23T18:58:04.665Z,95346.66
2022-08-23T19:00:51.010Z,95342.72
2022-08-23T19:03:37.002Z,95343.94
2022-08-23T19:06:23.624Z,95342.41
2022-08-23T19:09:12.796Z,95351.09
2022-08-23T19:12:00.886Z,95350.34
2022-08-23T19:14:47.102Z,95353.91
2022-08-23T19:17:33.285Z,95359.84
2022-08-23T19:20:19.789Z,95351.59
2022-08-23T19:23:06.114Z,95367.00
2022-08-23T19:25:52.230Z,95371.75
2022-08-23T19:28:39.820Z,95374.16
2022-08-23T19:31:28.217Z,95374.19
2022-08-23T19:34:18.883Z,95382.88
2022-08-23T19:37:05.185Z,95381.31
2022-08-23T19:39:56.684Z,95382.13
2022-08-23T19:42:42.558Z,95382.13
2022-08-23T19:45:32.179Z,95386.84
2022-08-23T19:48:20.022Z,95382.53
2022-08-23T19:51:12.458Z,95369.13
2022-08-23T19:54:04.619Z,95368.75
2022-08-23T19:56:57.591Z,95379.00
2022-08-23T19:59:44.736Z,95381.44
2022-08-23T20:02:30.662Z,95379.84
2022-08-23T20:05:17.706Z,95386.94
2022-08-23T20:08:04.311Z,95389.34
2022-08-23T20:10:50.219Z,95388.56
2022-08-23T20:13:36.360Z,95383.81
2022-08-23T20:16:24.019Z,95377.53
2022-08-23T20:19:11.239Z,95375.19
2022-08-23T20:22:19.421Z,95366.50
2022-08-23T20:25:07.428Z,95376.75
2022-08-23T20:27:53.865Z,95372.41
2022-08-23T20:30:40.271Z,95372.03
2022-08-23T20:33:26.157Z,95365.72
2022-08-23T20:36:12.483Z,95375.19
2022-08-23T20:39:00.191Z,95374.41
2022-08-23T20:41:46.435Z,95368.09
2022-08-23T20:44:33.382Z,95374.03
2022-08-23T20:47:19.298Z,95372.03
2022-08-23T20:50:06.181Z,95371.25
2022-08-23T20:52:52.379Z,95382.31
2022-08-23T20:55:41.680Z,95392.56
2022-08-23T20:58:28.138Z,95393.38
2022-08-23T21:01:14.512Z,95384.69
2022-08-23T21:04:00.966Z,95396.50
2022-08-23T21:06:49.960Z,95389.03
2022-08-23T21:09:37.051Z,95397.28
2022-08-23T21:12:22.998Z,95398.88
2022-08-23T21:15:11.064Z,95399.69
2022-08-23T21:17:57.129Z,95394.53
2022-08-23T21:20:43.191Z,95397.69
2022-08-23T21:23:29.308Z,95403.63
2022-08-23T21:26:16.031Z,95398.06
2022-08-23T21:29:02.315Z,95395.72
2022-08-23T21:31:48.497Z,95392.97
2022-08-23T21:34:34.677Z,95392.56
2022-08-23T21:37:20.392Z,95405.19
2022-08-23T21:40:06.974Z,95396.50
2022-08-23T21:42:52.825Z,95390.19
2022-08-23T21:45:39.586Z,95392.19
2022-08-23T21:48:27.838Z,95396.91
2022-08-23T21:51:13.813Z,95395.69
2022-08-23T21:53:59.682Z,95392.56
2022-08-23T21:56:46.274Z,95386.25
2022-08-23T21:59:32.052Z,95396.50
2022-08-23T22:02:19.239Z,95400.41
2022-08-23T22:05:07.171Z,95398.88
2022-08-23T22:07:53.569Z,95405.97
2022-08-23T22:16:04.013Z,95411.44
2022-08-23T22:46:23.351Z,95432.69
2022-08-23T22:49:09.451Z,95414.59
2022-08-23T22:51:57.462Z,95413.00
2022-08-23T22:54:43.616Z,95421.69
2022-08-23T22:57:30.678Z,95415.34
2022-08-23T23:00:16.739Z,95416.94
2022-08-23T23:03:02.709Z,95406.69
2022-08-23T23:05:50.209Z,95399.53
2022-08-23T23:08:37.063Z,95397.97
2022-08-23T23:11:23.801Z,95405.44
2022-08-23T23:14:10.550Z,95417.25
2022-08-23T23:16:56.606Z,95407.38
2022-08-23T23:20:04.049Z,95414.47
2022-08-23T23:22:51.901Z,95420.78
2022-08-23T23:25:38.115Z,95417.63
2022-08-23T23:28:24.306Z,95408.16
2022-08-23T23:31:10.048Z,95397.13
2022-08-23T23:33:56.155Z,95399.47
2022-08-23T23:36:41.996Z,95396.31
2022-08-23T23:39:28.332Z,95386.06
2022-08-23T23:42:14.282Z,95373.47
2022-08-23T23:44:59.984Z,95372.28
2022-08-23T23:47:46.373Z,95365.59
2022-08-23T23:50:32.538Z,95352.59
2022-08-23T23:53:21.695Z,95360.47
2022-08-23T23:56:14.976Z,95360.84
2022-08-23T23:59:00.771Z,95356.91
